sensor_id;sensor_type;location;lat;lon;timestamp;temperature;humidity
13205;DHT22;6667;52.634;9.226;2024-01-15T00:00:57;1.90;99.90
13205;DHT22;6667;52.634;9.226;2024-01-15T00:03:24;1.90;99.90
13205;DHT22;6667;52.634;9.226;2024-01-15T00:05:50;1.90;99.90
13205;DHT22;6667;52.634;9.226;2024-01-15T00:08:17;1.90;99.90
13205;DHT22;6667;52.634;9.226;2024-01-15T00:10:44;1.90;99.90
13205;DHT22;6667;52.634;9.226;2024-01-15T00:13:11;1.90;99.90
13205;DHT22;6667;52.634;9.226;2024-01-15T00:15:37;1.90;99.90
13205;DHT22;6667;52.634;9.226;2024-01-15T00:18:06;1.80;99.90
13205;DHT22;6667;52.634;9.226;2024-01-15T00:20:33;1.90;99.90
13205;DHT22;6667;52.634;9.226;2024-01-15T00:22:59;1.80;99.90
13205;DHT22;6667;52.634;9.226;2024-01-15T00:25:26;1.80;99.90
13205;DHT22;6667;52.634;9.226;2024-01-15T00:27:53;1.80;99.90
13205;DHT22;6667;52.634;9.226;2024-01-15T00:30:20;1.80;99.90
13205;DHT22;6667;52.634;9.226;2024-01-15T00:32:46;1.80;99.90
13205;DHT22;6667;52.634;9.226;2024-01-15T00:35:14;1.80;99.90
13205;DHT22;6667;52.634;9.226;2024-01-15T00:37:41;1.80;99.90
13205;DHT22;6667;52.634;9.226;2024-01-15T00:40:08;1.80;99.90
13205;DHT22;6667;52.634;9.226;2024-01-15T00:42:35;1.80;99.90
13205;DHT22;6667;52.634;9.226;2024-01-15T00:45:02;1.80;99.90
13205;DHT22;6667;52.634;9.226;2024-01-15T00:47:30;1.80;99.90
13205;DHT22;6667;52.634;9.226;2024-01-15T00:49:57;1.80;99.90
13205;DHT22;6667;52.634;9.226;2024-01-15T00:52:25;1.70;99.90
13205;DHT22;6667;52.634;9.226;2024-01-15T00:54:52;1.70;99.90
13205;DHT22;6667;52.634;9.226;2024-01-15T00:57:19;1.70;99.90
13205;DHT22;6667;52.634;9.226;2024-01-15T00:59:46;1.70;99.90
13205;DHT22;6667;52.634;9.226;2024-01-15T01:02:13;1.70;99.90
13205;DHT22;6667;52.634;9.226;2024-01-15T01:04:40;1.70;99.90
13205;DHT22;6667;52.634;9.226;2024-01-15T01:07:07;1.60;99.90
13205;DHT22;6667;52.634;9.226;2024-01-15T01:09:35;1.60;99.90
13205;DHT22;6667;52.634;9.226;2024-01-15T01:12:02;1.60;99.90
13205;DHT22;6667;52.634;9.226;2024-01-15T01:14:28;1.60;99.90
13205;DHT22;6667;52.634;9.226;2024-01-15T01:16:55;1.60;99.90
13205;DHT22;6667;52.634;9.226;2024-01-15T01:19:22;1.60;99.90
13205;DHT22;6667;52.634;9.226;2024-01-15T01:21:50;1.50;99.90
13205;DHT22;6667;52.634;9.226;2024-01-15T01:24:17;1.60;99.90
13205;DHT22;6667;52.634;9.226;2024-01-15T01:26:45;1.60;99.90
13205;DHT22;6667;52.634;9.226;2024-01-15T01:29:12;1.50;99.90
13205;DHT22;6667;52.634;9.226;2024-01-15T01:31:42;1.50;99.90
13205;DHT22;6667;52.634;9.226;2024-01-15T01:34:09;1.50;99.90
13205;DHT22;6667;52.634;9.226;2024-01-15T01:36:36;1.50;99.90
13205;DHT22;6667;52.634;9.226;2024-01-15T01:39:03;1.50;99.90
13205;DHT22;6667;52.634;9.226;2024-01-15T01:41:29;1.50;99.90
13205;DHT22;6667;52.634;9.226;2024-01-15T01:43:57;1.50;99.90
13205;DHT22;6667;52.634;9.226;2024-01-15T01:46:24;1.60;99.90
13205;DHT22;6667;52.634;9.226;2024-01-15T01:48:53;1.60;99.90
13205;DHT22;6667;52.634;9.226;2024-01-15T01:51:22;1.60;99.90
13205;DHT22;6667;52.634;9.226;2024-01-15T01:53:50;1.60;99.90
13205;DHT22;6667;52.634;9.226;2024-01-15T01:56:17;1.70;99.90
13205;DHT22;6667;52.634;9.226;2024-01-15T01:58:44;1.70;99.90
13205;DHT22;6667;52.634;9.226;2024-01-15T02:01:13;1.70;99.90
13205;DHT22;6667;52.634;9.226;2024-01-15T02:03:40;1.70;99.90
13205;DHT22;6667;52.634;9.226;2024-01-15T02:06:07;1.70;99.90
13205;DHT22;6667;52.634;9.226;2024-01-15T02:08:34;1.70;99.90
13205;DHT22;6667;52.634;9.226;2024-01-15T02:11:01;1.70;99.90
13205;DHT22;6667;52.634;9.226;2024-01-15T02:13:28;1.70;99.90
13205;DHT22;6667;52.634;9.226;2024-01-15T02:15:55;1.70;99.90
13205;DHT22;6667;52.634;9.226;2024-01-15T02:18:23;1.70;99.90
13205;DHT22;6667;52.634;9.226;2024-01-15T02:20:49;1.70;99.90
13205;DHT22;6667;52.634;9.226;2024-01-15T02:23:18;1.80;99.90
13205;DHT22;6667;52.634;9.226;2024-01-15T02:25:46;1.80;99.90
13205;DHT22;6667;52.634;9.226;2024-01-15T02:28:14;1.80;99.90
13205;DHT22;6667;52.634;9.226;2024-01-15T02:30:42;1.80;99.90
13205;DHT22;6667;52.634;9.226;2024-01-15T02:33:10;1.80;99.90
13205;DHT22;6667;52.634;9.226;2024-01-15T02:35:37;1.70;99.90
13205;DHT22;6667;52.634;9.226;2024-01-15T02:38:04;1.70;99.90
13205;DHT22;6667;52.634;9.226;2024-01-15T02:40:34;1.70;99.90
13205;DHT22;6667;52.634;9.226;2024-01-15T02:43:01;1.70;99.90
13205;DHT22;6667;52.634;9.226;2024-01-15T02:45:28;1.70;99.90
13205;DHT22;6667;52.634;9.226;2024-01-15T02:47:55;1.80;99.90
13205;DHT22;6667;52.634;9.226;2024-01-15T02:50:21;1.70;99.90
13205;DHT22;6667;52.634;9.226;2024-01-15T02:52:48;1.70;99.90
13205;DHT22;6667;52.634;9.226;2024-01-15T02:55:15;1.80;99.90
13205;DHT22;6667;52.634;9.226;2024-01-15T03:04:47;1.80;99.90
13205;DHT22;6667;52.634;9.226;2024-01-15T03:07:15;1.80;99.90
13205;DHT22;6667;52.634;9.226;2024-01-15T03:09:42;1.80;99.90
13205;DHT22;6667;52.634;9.226;2024-01-15T03:12:09;1.70;99.90
13205;DHT22;6667;52.634;9.226;2024-01-15T03:14:37;1.80;99.90
13205;DHT22;6667;52.634;9.226;2024-01-15T03:17:16;1.70;99.90
13205;DHT22;6667;52.634;9.226;2024-01-15T03:20:05;1.80;99.90
13205;DHT22;6667;52.634;9.226;2024-01-15T03:22:34;1.80;99.90
13205;DHT22;6667;52.634;9.226;2024-01-15T03:25:02;1.70;99.90
13205;DHT22;6667;52.634;9.226;2024-01-15T03:27:29;1.70;99.90
13205;DHT22;6667;52.634;9.226;2024-01-15T03:29:57;1.70;99.90
13205;DHT22;6667;52.634;9.226;2024-01-15T03:32:24;1.80;99.90
13205;DHT22;6667;52.634;9.226;2024-01-15T03:34:52;1.70;99.90
13205;DHT22;6667;52.634;9.226;2024-01-15T03:37:27;1.80;99.90
13205;DHT22;6667;52.634;9.226;2024-01-15T03:39:54;1.70;99.90
13205;DHT22;6667;52.634;9.226;2024-01-15T03:42:25;1.80;99.90
13205;DHT22;6667;52.634;9.226;2024-01-15T03:44:54;1.80;99.90
13205;DHT22;6667;52.634;9.226;2024-01-15T03:47:33;1.90;99.90
13205;DHT22;6667;52.634;9.226;2024-01-15T03:50:01;1.90;99.90
13205;DHT22;6667;52.634;9.226;2024-01-15T03:52:33;1.90;99.90
13205;DHT22;6667;52.634;9.226;2024-01-15T03:55:00;1.80;99.90
13205;DHT22;6667;52.634;9.226;2024-01-15T03:57:28;1.80;99.90
13205;DHT22;6667;52.634;9.226;2024-01-15T03:59:55;1.80;99.90
13205;DHT22;6667;52.634;9.226;2024-01-15T04:02:23;1.70;99.90
13205;DHT22;6667;52.634;9.226;2024-01-15T04:04:50;1.70;99.90
13205;DHT22;6667;52.634;9.226;2024-01-15T04:07:24;1.70;99.90
13205;DHT22;6667;52.634;9.226;2024-01-15T04:09:53;1.60;99.90
13205;DHT22;6667;52.634;9.226;2024-01-15T04:12:20;1.50;99.90
13205;DHT22;6667;52.634;9.226;2024-01-15T04:14:47;1.50;99.90
13205;DHT22;6667;52.634;9.226;2024-01-15T04:17:14;1.60;99.90
13205;DHT22;6667;52.634;9.226;2024-01-15T04:19:44;1.60;99.90
13205;DHT22;6667;52.634;9.226;2024-01-15T04:22:15;1.70;99.90
13205;DHT22;6667;52.634;9.226;2024-01-15T04:24:52;1.70;99.90
13205;DHT22;6667;52.634;9.226;2024-01-15T04:27:26;1.70;99.90
13205;DHT22;6667;52.634;9.226;2024-01-15T04:29:53;1.80;99.90
13205;DHT22;6667;52.634;9.226;2024-01-15T04:32:29;1.70;99.90
13205;DHT22;6667;52.634;9.226;2024-01-15T04:34:57;1.70;99.90
13205;DHT22;6667;52.634;9.226;2024-01-15T04:37:33;1.60;99.90
13205;DHT22;6667;52.634;9.226;2024-01-15T04:40:05;1.60;99.90
13205;DHT22;6667;52.634;9.226;2024-01-15T04:42:32;1.60;99.90
13205;DHT22;6667;52.634;9.226;2024-01-15T04:45:09;1.50;99.90
13205;DHT22;6667;52.634;9.226;2024-01-15T04:47:50;1.60;99.90
13205;DHT22;6667;52.634;9.226;2024-01-15T04:50:34;1.70;99.90
13205;DHT22;6667;52.634;9.226;2024-01-15T04:53:02;1.60;99.90
13205;DHT22;6667;52.634;9.226;2024-01-15T04:55:31;1.60;99.90
13205;DHT22;6667;52.634;9.226;2024-01-15T04:57:58;1.70;99.90
13205;DHT22;6667;52.634;9.226;2024-01-15T05:00:25;1.60;99.90
13205;DHT22;6667;52.634;9.226;2024-01-15T05:02:52;1.60;99.90
13205;DHT22;6667;52.634;9.226;2024-01-15T05:05:20;1.70;99.90
13205;DHT22;6667;52.634;9.226;2024-01-15T05:07:48;1.70;99.90
13205;DHT22;6667;52.634;9.226;2024-01-15T05:10:15;1.70;99.90
13205;DHT22;6667;52.634;9.226;2024-01-15T05:12:50;1.70;99.90
13205;DHT22;6667;52.634;9.226;2024-01-15T05:15:23;1.70;99.90
13205;DHT22;6667;52.634;9.226;2024-01-15T05:17:50;1.70;99.90
13205;DHT22;6667;52.634;9.226;2024-01-15T05:20:21;1.70;99.90
13205;DHT22;6667;52.634;9.226;2024-01-15T05:22:49;1.70;99.90
13205;DHT22;6667;52.634;9.226;2024-01-15T05:25:16;1.70;99.90
13205;DHT22;6667;52.634;9.226;2024-01-15T05:27:58;1.70;99.90
13205;DHT22;6667;52.634;9.226;2024-01-15T05:30:25;1.70;99.90
13205;DHT22;6667;52.634;9.226;2024-01-15T05:32:53;1.70;99.90
13205;DHT22;6667;52.634;9.226;2024-01-15T05:35:19;1.80;99.90
13205;DHT22;6667;52.634;9.226;2024-01-15T05:37:46;1.70;99.90
13205;DHT22;6667;52.634;9.226;2024-01-15T05:40:14;1.60;99.90
13205;DHT22;6667;52.634;9.226;2024-01-15T05:42:41;1.60;99.90
13205;DHT22;6667;52.634;9.226;2024-01-15T05:45:09;1.60;99.90
13205;DHT22;6667;52.634;9.226;2024-01-15T05:47:43;1.60;99.90
13205;DHT22;6667;52.634;9.226;2024-01-15T05:50:12;1.50;99.90
13205;DHT22;6667;52.634;9.226;2024-01-15T05:52:41;1.50;99.90
13205;DHT22;6667;52.634;9.226;2024-01-15T05:55:08;1.50;99.90
13205;DHT22;6667;52.634;9.226;2024-01-15T05:57:37;1.60;99.90
13205;DHT22;6667;52.634;9.226;2024-01-15T06:00:04;1.60;99.90
13205;DHT22;6667;52.634;9.226;2024-01-15T06:02:33;1.60;99.90
13205;DHT22;6667;52.634;9.226;2024-01-15T06:05:01;1.60;99.90
13205;DHT22;6667;52.634;9.226;2024-01-15T06:07:28;1.60;99.90
13205;DHT22;6667;52.634;9.226;2024-01-15T06:09:55;1.60;99.90
13205;DHT22;6667;52.634;9.226;2024-01-15T06:12:23;1.60;99.90
13205;DHT22;6667;52.634;9.226;2024-01-15T06:14:50;1.70;99.90
13205;DHT22;6667;52.634;9.226;2024-01-15T06:17:18;1.70;99.90
13205;DHT22;6667;52.634;9.226;2024-01-15T06:19:46;1.70;99.90
13205;DHT22;6667;52.634;9.226;2024-01-15T06:22:16;1.70;99.90
13205;DHT22;6667;52.634;9.226;2024-01-15T06:24:46;1.70;99.90
13205;DHT22;6667;52.634;9.226;2024-01-15T06:27:14;1.70;99.90
13205;DHT22;6667;52.634;9.226;2024-01-15T06:29:45;1.70;99.90
13205;DHT22;6667;52.634;9.226;2024-01-15T06:32:12;1.70;99.90
13205;DHT22;6667;52.634;9.226;2024-01-15T06:34:39;1.70;99.90
13205;DHT22;6667;52.634;9.226;2024-01-15T06:37:08;1.70;99.90
13205;DHT22;6667;52.634;9.226;2024-01-15T06:39:35;1.80;99.90
13205;DHT22;6667;52.634;9.226;2024-01-15T06:42:02;1.80;99.90
13205;DHT22;6667;52.634;9.226;2024-01-15T06:44:29;1.80;99.90
13205;DHT22;6667;52.634;9.226;2024-01-15T06:46:56;1.80;99.90
13205;DHT22;6667;52.634;9.226;2024-01-15T06:49:28;1.80;99.90
13205;DHT22;6667;52.634;9.226;2024-01-15T06:51:55;1.80;99.90
13205;DHT22;6667;52.634;9.226;2024-01-15T06:54:23;1.80;99.90
13205;DHT22;6667;52.634;9.226;2024-01-15T06:56:52;1.80;99.90
13205;DHT22;6667;52.634;9.226;2024-01-15T06:59:19;1.80;99.90
13205;DHT22;6667;52.634;9.226;2024-01-15T07:01:46;1.80;99.90
13205;DHT22;6667;52.634;9.226;2024-01-15T07:04:13;1.80;99.90
13205;DHT22;6667;52.634;9.226;2024-01-15T07:06:40;1.80;99.90
13205;DHT22;6667;52.634;9.226;2024-01-15T07:09:07;1.80;99.90
13205;DHT22;6667;52.634;9.226;2024-01-15T07:11:36;1.80;99.90
13205;DHT22;6667;52.634;9.226;2024-01-15T07:14:03;1.70;99.90
13205;DHT22;6667;52.634;9.226;2024-01-15T07:16:30;1.70;99.90
13205;DHT22;6667;52.634;9.226;2024-01-15T07:18:57;1.70;99.90
13205;DHT22;6667;52.634;9.226;2024-01-15T07:21:24;1.60;99.90
13205;DHT22;6667;52.634;9.226;2024-01-15T07:23:51;1.60;99.90
13205;DHT22;6667;52.634;9.226;2024-01-15T07:26:18;1.70;99.90
13205;DHT22;6667;52.634;9.226;2024-01-15T07:28:47;1.70;99.90
13205;DHT22;6667;52.634;9.226;2024-01-15T07:31:15;1.70;99.90
13205;DHT22;6667;52.634;9.226;2024-01-15T07:33:45;1.70;99.90
13205;DHT22;6667;52.634;9.226;2024-01-15T07:36:13;1.70;99.90
13205;DHT22;6667;52.634;9.226;2024-01-15T07:38:40;1.70;99.90
13205;DHT22;6667;52.634;9.226;2024-01-15T07:41:07;1.60;99.90
13205;DHT22;6667;52.634;9.226;2024-01-15T07:43:34;1.60;99.90
13205;DHT22;6667;52.634;9.226;2024-01-15T07:46:03;1.60;99.90
13205;DHT22;6667;52.634;9.226;2024-01-15T07:48:30;1.60;99.90
13205;DHT22;6667;52.634;9.226;2024-01-15T07:50:57;1.60;99.90
13205;DHT22;6667;52.634;9.226;2024-01-15T07:53:24;1.60;99.90
13205;DHT22;6667;52.634;9.226;2024-01-15T07:55:51;1.60;99.90
13205;DHT22;6667;52.634;9.226;2024-01-15T07:58:18;1.60;99.90
13205;DHT22;6667;52.634;9.226;2024-01-15T08:00:46;1.60;99.90
13205;DHT22;6667;52.634;9.226;2024-01-15T08:03:14;1.60;99.90
13205;DHT22;6667;52.634;9.226;2024-01-15T08:05:41;1.60;99.90
13205;DHT22;6667;52.634;9.226;2024-01-15T08:08:08;1.60;99.90
13205;DHT22;6667;52.634;9.226;2024-01-15T08:10:35;1.60;99.90
13205;DHT22;6667;52.634;9.226;2024-01-15T08:13:02;1.60;99.90
13205;DHT22;6667;52.634;9.226;2024-01-15T08:15:29;1.70;99.90
13205;DHT22;6667;52.634;9.226;2024-01-15T08:17:56;1.70;99.90
13205;DHT22;6667;52.634;9.226;2024-01-15T08:20:25;1.70;99.90
13205;DHT22;6667;52.634;9.226;2024-01-15T08:22:52;1.70;99.90
13205;DHT22;6667;52.634;9.226;2024-01-15T08:25:19;1.70;99.90
13205;DHT22;6667;52.634;9.226;2024-01-15T08:27:46;1.70;99.90
13205;DHT22;6667;52.634;9.226;2024-01-15T08:30:14;1.80;99.90
13205;DHT22;6667;52.634;9.226;2024-01-15T08:32:41;1.80;99.90
13205;DHT22;6667;52.634;9.226;2024-01-15T08:35:08;1.80;99.90
13205;DHT22;6667;52.634;9.226;2024-01-15T08:37:37;1.80;99.90
13205;DHT22;6667;52.634;9.226;2024-01-15T08:40:04;1.80;99.90
13205;DHT22;6667;52.634;9.226;2024-01-15T08:42:33;1.80;99.90
13205;DHT22;6667;52.634;9.226;2024-01-15T08:45:00;1.80;99.90
13205;DHT22;6667;52.634;9.226;2024-01-15T08:47:27;1.80;99.90
13205;DHT22;6667;52.634;9.226;2024-01-15T08:49:54;1.80;99.90
13205;DHT22;6667;52.634;9.226;2024-01-15T08:52:22;1.90;99.90
13205;DHT22;6667;52.634;9.226;2024-01-15T08:54:50;1.90;99.90
13205;DHT22;6667;52.634;9.226;2024-01-15T08:57:17;1.90;99.90
13205;DHT22;6667;52.634;9.226;2024-01-15T08:59:47;1.90;99.90
13205;DHT22;6667;52.634;9.226;2024-01-15T09:02:15;1.90;99.90
13205;DHT22;6667;52.634;9.226;2024-01-15T09:04:42;1.90;99.90
13205;DHT22;6667;52.634;9.226;2024-01-15T09:07:09;1.90;99.90
13205;DHT22;6667;52.634;9.226;2024-01-15T09:09:36;1.90;99.90
13205;DHT22;6667;52.634;9.226;2024-01-15T09:12:06;2.00;99.90
13205;DHT22;6667;52.634;9.226;2024-01-15T09:14:33;2.00;99.90
13205;DHT22;6667;52.634;9.226;2024-01-15T09:17:00;2.10;99.90
13205;DHT22;6667;52.634;9.226;2024-01-15T09:19:30;2.10;99.90
13205;DHT22;6667;52.634;9.226;2024-01-15T09:21:57;2.10;99.90
13205;DHT22;6667;52.634;9.226;2024-01-15T09:24:24;2.10;99.90
13205;DHT22;6667;52.634;9.226;2024-01-15T09:26:51;2.10;99.90
13205;DHT22;6667;52.634;9.226;2024-01-15T09:29:20;2.10;99.90
13205;DHT22;6667;52.634;9.226;2024-01-15T09:31:49;2.10;99.90
13205;DHT22;6667;52.634;9.226;2024-01-15T09:34:17;2.10;99.90
13205;DHT22;6667;52.634;9.226;2024-01-15T09:36:51;2.10;99.90
13205;DHT22;6667;52.634;9.226;2024-01-15T09:39:19;2.10;99.90
13205;DHT22;6667;52.634;9.226;2024-01-15T09:41:46;2.10;99.90
13205;DHT22;6667;52.634;9.226;2024-01-15T09:44:15;2.20;99.90
13205;DHT22;6667;52.634;9.226;2024-01-15T09:46:44;2.20;99.90
13205;DHT22;6667;52.634;9.226;2024-01-15T09:49:11;2.20;99.90
13205;DHT22;6667;52.634;9.226;2024-01-15T09:51:39;2.30;99.90
13205;DHT22;6667;52.634;9.226;2024-01-15T09:54:09;2.30;99.90
13205;DHT22;6667;52.634;9.226;2024-01-15T09:56:39;2.30;99.90
13205;DHT22;6667;52.634;9.226;2024-01-15T09:59:06;2.20;99.90
13205;DHT22;6667;52.634;9.226;2024-01-15T10:01:36;2.20;99.90
13205;DHT22;6667;52.634;9.226;2024-01-15T10:04:06;2.20;99.90
13205;DHT22;6667;52.634;9.226;2024-01-15T10:06:34;2.20;99.90
13205;DHT22;6667;52.634;9.226;2024-01-15T10:09:01;2.20;99.90
13205;DHT22;6667;52.634;9.226;2024-01-15T10:11:29;2.30;99.90
13205;DHT22;6667;52.634;9.226;2024-01-15T10:13:57;2.30;99.90
13205;DHT22;6667;52.634;9.226;2024-01-15T10:16:24;2.30;99.90
13205;DHT22;6667;52.634;9.226;2024-01-15T10:18:52;2.20;99.90
13205;DHT22;6667;52.634;9.226;2024-01-15T10:21:29;2.30;99.90
13205;DHT22;6667;52.634;9.226;2024-01-15T10:24:09;2.30;99.90
13205;DHT22;6667;52.634;9.226;2024-01-15T10:26:39;2.30;99.90
13205;DHT22;6667;52.634;9.226;2024-01-15T10:29:06;2.40;99.90
13205;DHT22;6667;52.634;9.226;2024-01-15T10:31:33;2.30;99.90
13205;DHT22;6667;52.634;9.226;2024-01-15T10:34:13;2.30;99.90
13205;DHT22;6667;52.634;9.226;2024-01-15T10:36:45;2.40;99.90
13205;DHT22;6667;52.634;9.226;2024-01-15T10:39:18;2.50;99.90
13205;DHT22;6667;52.634;9.226;2024-01-15T10:42:18;2.40;99.90
13205;DHT22;6667;52.634;9.226;2024-01-15T10:44:51;2.50;99.90
13205;DHT22;6667;52.634;9.226;2024-01-15T10:47:19;2.60;99.90
13205;DHT22;6667;52.634;9.226;2024-01-15T10:49:46;2.50;99.90
13205;DHT22;6667;52.634;9.226;2024-01-15T10:52:15;2.60;99.90
13205;DHT22;6667;52.634;9.226;2024-01-15T10:54:43;2.60;99.90
13205;DHT22;6667;52.634;9.226;2024-01-15T10:57:11;2.70;99.90
13205;DHT22;6667;52.634;9.226;2024-01-15T10:59:39;2.70;99.90
13205;DHT22;6667;52.634;9.226;2024-01-15T11:02:06;2.80;99.90
13205;DHT22;6667;52.634;9.226;2024-01-15T11:04:33;2.90;99.90
13205;DHT22;6667;52.634;9.226;2024-01-15T11:07:02;2.90;99.90
13205;DHT22;6667;52.634;9.226;2024-01-15T11:09:30;2.90;99.90
13205;DHT22;6667;52.634;9.226;2024-01-15T11:12:10;2.90;99.90
13205;DHT22;6667;52.634;9.226;2024-01-15T11:14:41;3.00;99.90
13205;DHT22;6667;52.634;9.226;2024-01-15T11:17:12;2.90;99.90
13205;DHT22;6667;52.634;9.226;2024-01-15T11:19:43;3.00;99.90
13205;DHT22;6667;52.634;9.226;2024-01-15T11:25:02;3.00;99.90
13205;DHT22;6667;52.634;9.226;2024-01-15T11:27:40;3.10;99.90
13205;DHT22;6667;52.634;9.226;2024-01-15T11:30:08;3.00;99.90
13205;DHT22;6667;52.634;9.226;2024-01-15T11:32:36;2.90;99.90
13205;DHT22;6667;52.634;9.226;2024-01-15T11:35:06;2.90;99.90
13205;DHT22;6667;52.634;9.226;2024-01-15T11:37:58;3.00;99.90
13205;DHT22;6667;52.634;9.226;2024-01-15T11:40:43;2.90;99.90
13205;DHT22;6667;52.634;9.226;2024-01-15T11:43:13;3.00;99.90
13205;DHT22;6667;52.634;9.226;2024-01-15T11:45:52;2.90;99.90
13205;DHT22;6667;52.634;9.226;2024-01-15T11:48:25;2.90;99.90
13205;DHT22;6667;52.634;9.226;2024-01-15T11:51:00;2.90;99.90
13205;DHT22;6667;52.634;9.226;2024-01-15T11:53:43;2.90;99.90
13205;DHT22;6667;52.634;9.226;2024-01-15T11:56:16;2.90;99.90
13205;DHT22;6667;52.634;9.226;2024-01-15T11:58:42;2.90;99.90
13205;DHT22;6667;52.634;9.226;2024-01-15T12:01:11;2.90;99.90
13205;DHT22;6667;52.634;9.226;2024-01-15T12:03:38;2.90;99.90
13205;DHT22;6667;52.634;9.226;2024-01-15T12:06:06;2.90;99.90
13205;DHT22;6667;52.634;9.226;2024-01-15T12:08:33;2.80;99.90
13205;DHT22;6667;52.634;9.226;2024-01-15T12:11:05;2.90;99.90
13205;DHT22;6667;52.634;9.226;2024-01-15T12:13:34;2.90;99.90
13205;DHT22;6667;52.634;9.226;2024-01-15T12:16:02;2.90;99.90
13205;DHT22;6667;52.634;9.226;2024-01-15T12:18:32;2.90;99.90
13205;DHT22;6667;52.634;9.226;2024-01-15T12:20:59;2.90;99.90
13205;DHT22;6667;52.634;9.226;2024-01-15T12:23:26;2.80;99.90
13205;DHT22;6667;52.634;9.226;2024-01-15T12:25:54;2.80;99.90
13205;DHT22;6667;52.634;9.226;2024-01-15T12:28:21;2.80;99.90
13205;DHT22;6667;52.634;9.226;2024-01-15T12:30:49;2.80;99.90
13205;DHT22;6667;52.634;9.226;2024-01-15T12:33:18;2.70;99.90
13205;DHT22;6667;52.634;9.226;2024-01-15T12:35:46;2.60;99.90
13205;DHT22;6667;52.634;9.226;2024-01-15T12:38:14;2.60;99.90
13205;DHT22;6667;52.634;9.226;2024-01-15T12:40:44;2.50;99.90
13205;DHT22;6667;52.634;9.226;2024-01-15T12:43:12;2.40;99.90
13205;DHT22;6667;52.634;9.226;2024-01-15T12:45:40;2.30;99.90
13205;DHT22;6667;52.634;9.226;2024-01-15T12:48:11;2.20;99.90
13205;DHT22;6667;52.634;9.226;2024-01-15T12:50:39;2.20;99.90
13205;DHT22;6667;52.634;9.226;2024-01-15T12:53:37;2.20;99.90
13205;DHT22;6667;52.634;9.226;2024-01-15T12:55:54;2.30;99.90
13205;DHT22;6667;52.634;9.226;2024-01-15T12:58:21;2.40;99.90
13205;DHT22;6667;52.634;9.226;2024-01-15T13:00:57;2.50;99.90
13205;DHT22;6667;52.634;9.226;2024-01-15T13:03:26;2.50;99.90
13205;DHT22;6667;52.634;9.226;2024-01-15T13:05:58;2.50;99.90
13205;DHT22;6667;52.634;9.226;2024-01-15T13:08:25;2.50;99.90
13205;DHT22;6667;52.634;9.226;2024-01-15T13:10:54;2.40;99.90
13205;DHT22;6667;52.634;9.226;2024-01-15T13:13:22;2.50;99.90
13205;DHT22;6667;52.634;9.226;2024-01-15T13:15:49;2.40;99.90
13205;DHT22;6667;52.634;9.226;2024-01-15T13:18:17;2.40;99.90
13205;DHT22;6667;52.634;9.226;2024-01-15T13:20:46;2.30;99.90
13205;DHT22;6667;52.634;9.226;2024-01-15T13:23:15;2.30;99.90
13205;DHT22;6667;52.634;9.226;2024-01-15T13:25:42;2.20;99.90
13205;DHT22;6667;52.634;9.226;2024-01-15T13:28:09;2.20;99.90
13205;DHT22;6667;52.634;9.226;2024-01-15T13:30:37;2.20;99.90
13205;DHT22;6667;52.634;9.226;2024-01-15T13:33:04;2.20;99.90
13205;DHT22;6667;52.634;9.226;2024-01-15T13:35:31;2.20;99.90
13205;DHT22;6667;52.634;9.226;2024-01-15T13:38:00;2.30;99.90
13205;DHT22;6667;52.634;9.226;2024-01-15T13:40:27;2.30;99.90
13205;DHT22;6667;52.634;9.226;2024-01-15T13:42:54;2.30;99.90
13205;DHT22;6667;52.634;9.226;2024-01-15T13:45:20;2.40;99.90
13205;DHT22;6667;52.634;9.226;2024-01-15T13:47:49;2.30;99.90
13205;DHT22;6667;52.634;9.226;2024-01-15T13:50:16;2.40;99.90
13205;DHT22;6667;52.634;9.226;2024-01-15T13:52:43;2.40;99.90
13205;DHT22;6667;52.634;9.226;2024-01-15T13:55:12;2.40;99.90
13205;DHT22;6667;52.634;9.226;2024-01-15T13:57:39;2.40;99.90
13205;DHT22;6667;52.634;9.226;2024-01-15T14:00:06;2.30;99.90
13205;DHT22;6667;52.634;9.226;2024-01-15T14:02:36;2.30;99.90
13205;DHT22;6667;52.634;9.226;2024-01-15T14:05:04;2.30;99.90
13205;DHT22;6667;52.634;9.226;2024-01-15T14:07:31;2.30;99.90
13205;DHT22;6667;52.634;9.226;2024-01-15T14:09:58;2.30;99.90
13205;DHT22;6667;52.634;9.226;2024-01-15T14:12:27;2.20;99.90
13205;DHT22;6667;52.634;9.226;2024-01-15T14:14:53;2.10;99.90
13205;DHT22;6667;52.634;9.226;2024-01-15T14:17:21;2.10;99.90
13205;DHT22;6667;52.634;9.226;2024-01-15T14:19:48;2.10;99.90
13205;DHT22;6667;52.634;9.226;2024-01-15T14:22:15;2.10;99.90
13205;DHT22;6667;52.634;9.226;2024-01-15T14:24:42;2.10;99.90
13205;DHT22;6667;52.634;9.226;2024-01-15T14:27:09;2.20;99.90
13205;DHT22;6667;52.634;9.226;2024-01-15T14:29:37;2.20;99.90
13205;DHT22;6667;52.634;9.226;2024-01-15T14:32:04;2.30;99.90
13205;DHT22;6667;52.634;9.226;2024-01-15T14:34:31;2.30;99.90
13205;DHT22;6667;52.634;9.226;2024-01-15T14:36:58;2.30;99.90
13205;DHT22;6667;52.634;9.226;2024-01-15T14:39:25;2.20;99.90
13205;DHT22;6667;52.634;9.226;2024-01-15T14:41:52;2.20;99.90
13205;DHT22;6667;52.634;9.226;2024-01-15T14:44:19;2.20;99.90
13205;DHT22;6667;52.634;9.226;2024-01-15T14:46:48;2.30;99.90
13205;DHT22;6667;52.634;9.226;2024-01-15T14:49:15;2.20;99.90
13205;DHT22;6667;52.634;9.226;2024-01-15T14:51:43;2.20;99.90
13205;DHT22;6667;52.634;9.226;2024-01-15T14:54:11;2.20;99.90
13205;DHT22;6667;52.634;9.226;2024-01-15T14:56:38;2.20;99.90
13205;DHT22;6667;52.634;9.226;2024-01-15T14:59:04;2.20;99.90
13205;DHT22;6667;52.634;9.226;2024-01-15T15:01:35;2.20;99.90
13205;DHT22;6667;52.634;9.226;2024-01-15T15:04:04;2.20;99.90
13205;DHT22;6667;52.634;9.226;2024-01-15T15:06:31;2.20;99.90
13205;DHT22;6667;52.634;9.226;2024-01-15T15:08:58;2.20;99.90
13205;DHT22;6667;52.634;9.226;2024-01-15T15:11:26;2.10;99.90
13205;DHT22;6667;52.634;9.226;2024-01-15T15:13:53;2.10;99.90
13205;DHT22;6667;52.634;9.226;2024-01-15T15:16:34;2.00;99.90
13205;DHT22;6667;52.634;9.226;2024-01-15T15:19:01;1.90;99.90
13205;DHT22;6667;52.634;9.226;2024-01-15T15:21:29;1.90;99.90
13205;DHT22;6667;52.634;9.226;2024-01-15T15:24:00;2.00;99.90
13205;DHT22;6667;52.634;9.226;2024-01-15T15:26:27;1.90;99.90
13205;DHT22;6667;52.634;9.226;2024-01-15T15:29:03;1.90;99.90
13205;DHT22;6667;52.634;9.226;2024-01-15T15:31:30;2.00;99.90
13205;DHT22;6667;52.634;9.226;2024-01-15T15:33:57;2.00;99.90
13205;DHT22;6667;52.634;9.226;2024-01-15T15:36:24;2.00;99.90
13205;DHT22;6667;52.634;9.226;2024-01-15T15:38:52;2.00;99.90
13205;DHT22;6667;52.634;9.226;2024-01-15T15:41:21;2.00;99.90
13205;DHT22;6667;52.634;9.226;2024-01-15T15:43:48;2.00;99.90
13205;DHT22;6667;52.634;9.226;2024-01-15T15:46:15;2.00;99.90
13205;DHT22;6667;52.634;9.226;2024-01-15T15:48:42;2.00;99.90
13205;DHT22;6667;52.634;9.226;2024-01-15T15:51:09;1.90;99.90
13205;DHT22;6667;52.634;9.226;2024-01-15T15:53:36;2.00;99.90
13205;DHT22;6667;52.634;9.226;2024-01-15T15:56:05;2.00;99.90
13205;DHT22;6667;52.634;9.226;2024-01-15T15:58:32;2.00;99.90
13205;DHT22;6667;52.634;9.226;2024-01-15T16:00:59;1.90;99.90
13205;DHT22;6667;52.634;9.226;2024-01-15T16:03:26;1.90;99.90
13205;DHT22;6667;52.634;9.226;2024-01-15T16:05:56;1.90;99.90
13205;DHT22;6667;52.634;9.226;2024-01-15T16:08:23;1.90;99.90
13205;DHT22;6667;52.634;9.226;2024-01-15T16:10:50;1.90;99.90
13205;DHT22;6667;52.634;9.226;2024-01-15T16:13:18;1.90;99.90
13205;DHT22;6667;52.634;9.226;2024-01-15T16:15:45;1.90;99.90
13205;DHT22;6667;52.634;9.226;2024-01-15T16:18:12;1.90;99.90
13205;DHT22;6667;52.634;9.226;2024-01-15T16:20:39;1.90;99.90